This is the latest recevied weather packets stored in our database for station/object DG1UDO-13. If no packets are shown the sender has not sent any weather packets the latest 10 day(s).
| Time | Temp. | Humidity | Pressure | Rain* | Wind** | Luminosity | Snow |
|---|---|---|---|---|---|---|---|
| 1777831500 | 18.33° C | 75% | 1009.2 hPa | - | - | - | - |
| 1777829701 | 18.89° C | 74% | 1008.9 hPa | - | - | - | - |
| 1777827901 | 22.22° C | 44% | 1008.2 hPa | - | - | - | - |
| 1777826101 | 23.33° C | 42% | 1008.1 hPa | - | - | - | - |
| 1777824300 | 23.89° C | 41% | 1008 hPa | - | - | - | - |
| 1777822501 | 24.44° C | 39% | 1008.2 hPa | - | - | - | - |
| 1777820701 | 25.56° C | 39% | 1008.1 hPa | - | - | - | - |
| 1777818901 | 25.56° C | 44% | 1008.4 hPa | - | - | - | - |
| 1777817101 | 25° C | 45% | 1009.1 hPa | - | - | - | - |
| 1777815300 | 24.44° C | 50% | 1009.6 hPa | - | - | - | - |
| 1777813501 | 23.89° C | 48% | 1009.9 hPa | - | - | - | - |
| 1777811700 | 24.44° C | 50% | 1010.3 hPa | - | - | - | - |
| 1777809900 | 23.89° C | 53% | 1010.5 hPa | - | - | - | - |
| 1777808101 | 22.78° C | 60% | 1010.9 hPa | - | - | - | - |
| 1777806301 | 22.22° C | 62% | 1011.2 hPa | - | - | - | - |
| 1777804500 | 21.67° C | 66% | 1011.6 hPa | - | - | - | - |
| 1777802701 | 21.11° C | 66% | 1011.9 hPa | - | - | - | - |
| 1777800900 | 19.44° C | 74% | 1012.2 hPa | - | - | - | - |
| 1777799100 | 18.89° C | 79% | 1012.4 hPa | - | - | - | - |
| 1777797301 | 17.22° C | 83% | 1012.2 hPa | - | - | - | - |
| 1777795501 | 16.11° C | 88% | 1012.6 hPa | - | - | - | - |
| 1777793700 | 15.56° C | 90% | 1012.3 hPa | - | - | - | - |
| 1777791900 | 15° C | 94% | 1012.5 hPa | - | - | - | - |
| 1777790101 | 14.44° C | 98% | 1012.4 hPa | - | - | - | - |
| 1777788301 | 13.89° C | 99% | 1012.8 hPa | - | - | - | - |
* Rain since midnight (hover to see other rain measurements)
** Current wind speed in m/s (hover to see current wind gust speed)